createdAt,value
2023-11-22T00:01:08.526Z,3.92
2023-11-22T00:03:35.841Z,5.55
2023-11-22T00:06:03.050Z,4.80
2023-11-22T00:08:30.878Z,6.18
2023-11-22T00:10:58.255Z,5.00
2023-11-22T00:13:25.304Z,5.82
2023-11-22T00:15:52.412Z,4.78
2023-11-22T00:18:19.509Z,6.20
2023-11-22T00:20:49.088Z,5.80
2023-11-22T00:23:16.325Z,5.32
2023-11-22T00:25:43.649Z,6.30
2023-11-22T00:28:10.613Z,8.30
2023-11-22T00:30:38.399Z,5.45
2023-11-22T00:33:06.243Z,4.85
2023-11-22T00:35:33.474Z,8.07
2023-11-22T00:38:00.546Z,8.32
2023-11-22T00:40:27.671Z,6.53
2023-11-22T00:42:54.638Z,11.48
2023-11-22T00:45:21.637Z,5.85
2023-11-22T00:47:49.455Z,4.53
2023-11-22T00:50:21.267Z,6.00
2023-11-22T00:52:49.563Z,8.20
2023-11-22T00:55:16.812Z,6.28
2023-11-22T00:57:45.021Z,9.15
2023-11-22T01:00:13.692Z,10.05
2023-11-22T01:02:41.235Z,7.10
2023-11-22T01:05:12.722Z,7.25
2023-11-22T01:07:40.285Z,6.85
2023-11-22T01:10:09.008Z,6.95
2023-11-22T01:12:36.067Z,9.10
2023-11-22T01:15:04.455Z,8.63
2023-11-22T01:17:34.231Z,6.47
2023-11-22T01:20:04.820Z,10.05
2023-11-22T01:22:32.442Z,8.98
2023-11-22T01:25:00.185Z,8.13
2023-11-22T01:27:27.296Z,8.63
2023-11-22T01:29:55.613Z,6.15
2023-11-22T01:32:22.938Z,8.13
2023-11-22T01:34:49.950Z,4.65
2023-11-22T01:37:16.971Z,6.93
2023-11-22T01:39:44.411Z,4.35
2023-11-22T01:42:11.397Z,10.40
2023-11-22T01:44:38.465Z,5.75
2023-11-22T01:47:06.631Z,8.02
2023-11-22T01:49:34.178Z,6.05
2023-11-22T01:52:02.645Z,6.80
2023-11-22T01:54:31.381Z,4.13
2023-11-22T01:56:58.638Z,3.65
2023-11-22T01:59:27.607Z,5.47
2023-11-22T02:01:57.900Z,5.43
2023-11-22T02:04:25.120Z,5.72
2023-11-22T02:06:52.798Z,2.65
2023-11-22T02:09:20.283Z,6.63
2023-11-22T02:11:50.396Z,4.05
2023-11-22T02:14:17.738Z,3.80
2023-11-22T02:16:44.988Z,7.30
2023-11-22T02:19:18.979Z,6.88
2023-11-22T02:21:46.765Z,2.58
2023-11-22T02:24:13.894Z,2.40
2023-11-22T02:26:47.335Z,6.63
2023-11-22T02:29:15.238Z,2.22
2023-11-22T02:31:44.388Z,5.63
2023-11-22T02:34:11.556Z,1.70
2023-11-22T02:36:38.891Z,2.97
2023-11-22T02:39:06.045Z,8.20
2023-11-22T02:41:33.573Z,8.88
2023-11-22T02:44:01.310Z,6.35
2023-11-22T02:46:28.826Z,5.60
2023-11-22T02:48:55.986Z,4.28
2023-11-22T02:51:23.693Z,3.35
2023-11-22T02:53:51.296Z,4.45
2023-11-22T02:56:18.717Z,3.83
2023-11-22T02:58:45.811Z,2.58
2023-11-22T03:01:13.058Z,0.70
2023-11-22T03:03:41.357Z,1.13
2023-11-22T03:06:08.415Z,0.73
2023-11-22T03:08:35.450Z,2.00
2023-11-22T03:11:03.713Z,0.70
2023-11-22T03:13:30.783Z,0.30
2023-11-22T03:15:58.492Z,0.30
2023-11-22T03:18:25.442Z,1.05
2023-11-22T03:20:55.700Z,0.30
2023-11-22T03:23:23.157Z,1.85
2023-11-22T03:25:50.132Z,0.40
2023-11-22T03:28:17.302Z,0.32
2023-11-22T03:30:44.436Z,0.80
2023-11-22T03:33:11.839Z,0.63
2023-11-22T03:35:39.123Z,1.02
2023-11-22T03:38:07.448Z,0.80
2023-11-22T03:40:34.456Z,0.40
2023-11-22T03:43:02.176Z,0.50
2023-11-22T03:45:29.118Z,0.40
2023-11-22T03:47:56.161Z,0.63
2023-11-22T03:50:27.336Z,0.60
2023-11-22T03:52:54.397Z,0.65
2023-11-22T03:55:21.405Z,0.73
2023-11-22T03:57:48.394Z,0.95
2023-11-22T04:00:15.964Z,1.15
2023-11-22T04:02:43.406Z,0.55
2023-11-22T04:05:12.873Z,1.42
2023-11-22T04:07:40.550Z,0.85
2023-11-22T04:10:07.971Z,0.60
2023-11-22T04:12:36.750Z,0.88
2023-11-22T04:15:05.092Z,1.20
2023-11-22T04:17:33.734Z,0.90
2023-11-22T04:20:01.225Z,0.90
2023-11-22T04:22:28.180Z,1.08
2023-11-22T04:24:55.132Z,0.70
2023-11-22T04:27:22.343Z,0.82
2023-11-22T04:29:49.294Z,0.85
2023-11-22T04:32:16.771Z,1.67
2023-11-22T04:34:43.777Z,1.42
2023-11-22T04:37:10.777Z,2.15
2023-11-22T04:39:37.860Z,2.17
2023-11-22T04:42:05.366Z,2.88
2023-11-22T04:44:33.477Z,2.85
2023-11-22T04:47:00.852Z,2.22
2023-11-22T04:49:28.380Z,3.33
2023-11-22T04:51:56.415Z,2.25
2023-11-22T04:54:23.391Z,3.90
2023-11-22T04:56:50.374Z,2.67
2023-11-22T04:59:17.378Z,2.20
2023-11-22T05:01:44.355Z,2.75
2023-11-22T05:04:11.887Z,2.25
2023-11-22T05:06:38.966Z,3.03
2023-11-22T05:09:07.042Z,2.03
2023-11-22T05:11:34.032Z,3.80
2023-11-22T05:14:00.993Z,1.50
2023-11-22T05:16:27.962Z,1.73
2023-11-22T05:18:54.903Z,3.10
2023-11-22T05:21:21.911Z,2.20
2023-11-22T05:23:48.930Z,4.22
2023-11-22T05:26:15.934Z,6.38
2023-11-22T05:28:42.949Z,5.82
2023-11-22T05:31:09.912Z,3.83
2023-11-22T05:33:36.986Z,4.93
2023-11-22T05:36:04.767Z,4.45
2023-11-22T05:38:31.854Z,2.95
2023-11-22T05:40:58.870Z,4.03
2023-11-22T05:43:28.410Z,4.15
2023-11-22T05:45:55.461Z,2.75
2023-11-22T05:48:22.800Z,3.55
2023-11-22T05:50:50.338Z,2.63
2023-11-22T05:53:23.127Z,2.58
2023-11-22T05:55:50.420Z,1.45
2023-11-22T05:58:18.497Z,1.13
2023-11-22T06:00:46.369Z,1.98
2023-11-22T06:03:14.826Z,3.17
2023-11-22T06:05:42.019Z,2.35
2023-11-22T06:08:11.004Z,2.28
2023-11-22T06:10:39.464Z,2.10
2023-11-22T06:13:06.418Z,2.05
2023-11-22T06:15:33.654Z,3.05
2023-11-22T06:18:00.760Z,2.22
2023-11-22T06:20:28.684Z,2.65
2023-11-22T06:22:55.658Z,3.28
2023-11-22T06:25:22.762Z,1.60
2023-11-22T06:27:49.712Z,1.30
2023-11-22T06:30:17.115Z,2.10
2023-11-22T06:32:44.176Z,2.78
2023-11-22T06:35:16.222Z,1.40
2023-11-22T06:37:43.360Z,2.20
2023-11-22T06:40:14.514Z,1.98
2023-11-22T06:42:45.225Z,1.55
2023-11-22T06:45:14.252Z,2.40
2023-11-22T06:47:42.165Z,2.35
2023-11-22T06:50:10.822Z,2.78
2023-11-22T06:52:41.844Z,4.07
2023-11-22T06:55:11.244Z,1.40
2023-11-22T06:57:39.037Z,3.80
2023-11-22T07:00:07.429Z,2.88
2023-11-22T07:02:34.501Z,2.63
2023-11-22T07:05:01.565Z,3.58
2023-11-22T07:07:28.739Z,2.03
2023-11-22T07:09:59.824Z,2.88
2023-11-22T07:12:28.064Z,1.70
2023-11-22T07:14:55.004Z,2.55
2023-11-22T07:17:23.851Z,2.10
2023-11-22T07:19:52.915Z,3.83
2023-11-22T07:22:20.813Z,3.88
2023-11-22T07:24:56.003Z,2.47
2023-11-22T07:27:23.773Z,1.85
2023-11-22T07:29:53.621Z,2.25
2023-11-22T07:32:22.125Z,2.13
2023-11-22T07:34:49.128Z,1.42
2023-11-22T07:37:16.457Z,2.10
2023-11-22T07:39:45.119Z,2.17
2023-11-22T07:42:12.130Z,2.67
2023-11-22T07:44:39.735Z,3.63
2023-11-22T07:47:11.046Z,1.48
2023-11-22T07:49:44.347Z,2.28
2023-11-22T07:52:15.492Z,2.22
2023-11-22T07:54:42.559Z,2.83
2023-11-22T07:57:09.709Z,2.72
2023-11-22T07:59:38.144Z,2.10
2023-11-22T08:02:12.468Z,3.60
2023-11-22T08:04:39.554Z,2.88
2023-11-22T08:07:06.509Z,3.53
2023-11-22T08:09:34.194Z,2.83
2023-11-22T08:12:06.405Z,2.22
2023-11-22T08:14:33.925Z,2.30
2023-11-22T08:17:01.213Z,5.50
2023-11-22T08:19:28.965Z,3.03
2023-11-22T08:21:55.957Z,3.05
2023-11-22T08:24:23.358Z,2.63
2023-11-22T08:26:50.501Z,2.58
2023-11-22T08:29:17.532Z,3.38
2023-11-22T08:31:44.649Z,2.38
2023-11-22T08:34:12.763Z,1.65
2023-11-22T08:36:40.148Z,3.42
2023-11-22T08:39:07.296Z,1.60
2023-11-22T08:41:34.893Z,1.75
2023-11-22T08:44:01.928Z,1.75
2023-11-22T08:46:29.156Z,1.52
2023-11-22T08:48:58.012Z,1.08
2023-11-22T08:51:25.143Z,1.30
2023-11-22T08:53:52.434Z,1.55
2023-11-22T08:56:19.928Z,1.92
2023-11-22T08:58:46.903Z,2.08
2023-11-22T09:01:16.190Z,1.40
2023-11-22T09:03:45.259Z,2.10
2023-11-22T09:06:12.522Z,2.60
2023-11-22T09:08:39.652Z,2.10
2023-11-22T09:11:08.455Z,1.88
2023-11-22T09:13:36.480Z,1.92
2023-11-22T09:16:06.780Z,2.92
2023-11-22T09:18:34.400Z,2.38
2023-11-22T09:21:01.492Z,2.35
2023-11-22T09:23:28.600Z,3.60
2023-11-22T09:25:55.655Z,2.97
2023-11-22T09:28:23.028Z,3.88
2023-11-22T09:30:50.807Z,4.93
2023-11-22T09:33:18.587Z,3.17
2023-11-22T09:35:49.246Z,3.45
2023-11-22T09:38:17.779Z,4.45
2023-11-22T09:40:48.129Z,3.40
2023-11-22T09:43:19.953Z,2.78
2023-11-22T09:45:54.347Z,3.00
2023-11-22T09:48:28.902Z,2.90
2023-11-22T09:56:34.315Z,3.80
2023-11-22T09:59:02.331Z,4.35
2023-11-22T10:01:29.673Z,4.15
2023-11-22T10:03:57.671Z,4.38
2023-11-22T10:06:24.919Z,1.77
2023-11-22T10:08:54.356Z,2.10
2023-11-22T10:11:22.754Z,2.47
2023-11-22T10:13:52.806Z,3.30
2023-11-22T10:16:22.387Z,2.55
2023-11-22T10:18:50.528Z,6.93
2023-11-22T10:21:29.592Z,4.90
2023-11-22T10:23:58.668Z,3.42
2023-11-22T10:26:28.777Z,4.78
2023-11-22T10:28:58.115Z,2.95
2023-11-22T10:31:25.852Z,4.38
2023-11-22T10:33:55.198Z,4.18
2023-11-22T10:36:24.103Z,3.97
2023-11-22T10:38:54.597Z,2.45
2023-11-22T10:41:24.558Z,3.67
2023-11-22T10:43:57.820Z,11.48
2023-11-22T10:46:31.539Z,5.45
2023-11-22T10:48:59.913Z,5.35
2023-11-22T10:51:33.989Z,4.55
2023-11-22T10:54:05.459Z,6.75
2023-11-22T10:56:45.611Z,4.75
2023-11-22T10:59:15.941Z,3.63
2023-11-22T11:01:50.673Z,2.65
2023-11-22T11:04:26.423Z,4.97
2023-11-22T11:06:58.939Z,6.07
2023-11-22T11:09:31.044Z,3.42
2023-11-22T11:11:59.975Z,2.90
2023-11-22T11:14:28.591Z,3.97
2023-11-22T11:16:59.983Z,3.38
2023-11-22T11:19:28.725Z,2.72
2023-11-22T11:21:58.575Z,2.58
2023-11-22T11:24:25.581Z,4.03
2023-11-22T11:26:54.299Z,2.30
2023-11-22T11:29:42.210Z,6.10
2023-11-22T11:32:40.526Z,3.78
2023-11-22T11:35:09.445Z,4.15
2023-11-22T11:37:38.802Z,5.55
2023-11-22T11:40:28.313Z,4.95
2023-11-22T11:42:56.519Z,6.47
2023-11-22T11:45:23.540Z,3.75
2023-11-22T11:47:50.599Z,5.80
2023-11-22T11:50:17.684Z,3.75
2023-11-22T11:52:44.648Z,3.75
2023-11-22T11:55:11.702Z,4.65
2023-11-22T11:57:38.688Z,5.03
2023-11-22T12:00:06.802Z,3.42
2023-11-22T12:02:39.827Z,4.32
2023-11-22T12:05:10.343Z,3.80
2023-11-22T12:07:38.770Z,4.00
2023-11-22T12:10:09.638Z,4.82
2023-11-22T12:12:36.816Z,4.40
2023-11-22T12:15:04.998Z,6.75
2023-11-22T12:17:32.468Z,3.92
2023-11-22T12:20:20.219Z,4.72
2023-11-22T12:22:48.961Z,5.28
2023-11-22T12:25:16.206Z,5.18
2023-11-22T12:27:45.634Z,5.80
2023-11-22T12:30:33.994Z,3.85
2023-11-22T12:33:11.718Z,7.93
2023-11-22T12:35:39.495Z,6.53
2023-11-22T12:38:08.094Z,5.20
2023-11-22T12:40:35.190Z,3.88
2023-11-22T12:43:04.930Z,5.45
2023-11-22T12:45:38.551Z,4.97
2023-11-22T12:48:25.735Z,6.25
2023-11-22T12:50:53.934Z,7.28
2023-11-22T12:53:23.935Z,4.55
2023-11-22T12:55:53.222Z,5.72
2023-11-22T12:58:21.709Z,5.53
2023-11-22T13:00:51.919Z,5.28
2023-11-22T13:03:19.007Z,4.60
2023-11-22T13:05:47.276Z,3.53
2023-11-22T13:08:15.336Z,3.33
2023-11-22T13:10:47.695Z,4.25
2023-11-22T13:13:15.351Z,4.65
2023-11-22T13:15:42.386Z,6.13
2023-11-22T13:18:10.156Z,6.70
2023-11-22T13:20:40.183Z,5.88
2023-11-22T13:23:07.305Z,5.82
2023-11-22T13:25:34.632Z,3.15
2023-11-22T13:28:01.632Z,5.22
2023-11-22T13:30:28.590Z,4.47
2023-11-22T13:33:00.261Z,6.07
2023-11-22T13:35:32.170Z,6.90
2023-11-22T13:38:01.884Z,4.40
2023-11-22T13:40:32.013Z,5.55
2023-11-22T13:42:59.605Z,5.65
2023-11-22T13:45:26.635Z,3.25
2023-11-22T13:47:59.131Z,7.38
2023-11-22T13:50:27.953Z,5.20
2023-11-22T13:52:56.550Z,3.80
2023-11-22T13:55:24.665Z,6.15
2023-11-22T13:57:52.886Z,4.07
2023-11-22T14:00:23.903Z,5.47
2023-11-22T14:02:57.335Z,4.18
2023-11-22T14:05:25.812Z,3.80
2023-11-22T14:07:53.214Z,4.28
2023-11-22T14:10:20.634Z,4.88
2023-11-22T14:12:48.119Z,4.38
2023-11-22T14:15:15.214Z,3.13
2023-11-22T14:17:43.465Z,5.97
2023-11-22T14:20:16.165Z,3.10
2023-11-22T14:22:44.484Z,2.67
2023-11-22T14:25:17.052Z,8.05
2023-11-22T14:27:46.770Z,6.30
2023-11-22T14:30:16.326Z,5.25
2023-11-22T14:32:46.234Z,2.95
2023-11-22T14:35:13.943Z,4.15
2023-11-22T14:37:41.294Z,2.33
2023-11-22T14:40:15.314Z,3.38
2023-11-22T14:42:43.814Z,2.83
2023-11-22T14:45:12.838Z,5.00
2023-11-22T14:47:41.516Z,4.07
2023-11-22T14:50:12.943Z,7.07
2023-11-22T14:52:40.339Z,5.00
2023-11-22T14:55:07.965Z,4.88
2023-11-22T14:57:34.937Z,4.18
2023-11-22T15:00:01.895Z,8.18
2023-11-22T15:02:29.103Z,3.83
2023-11-22T15:04:56.236Z,5.95
2023-11-22T15:07:23.344Z,3.25
2023-11-22T15:09:50.308Z,4.90
2023-11-22T15:12:17.264Z,6.38
2023-11-22T15:14:44.309Z,5.38
2023-11-22T15:17:11.286Z,4.32
2023-11-22T15:19:39.561Z,5.45
2023-11-22T15:22:07.315Z,5.25
2023-11-22T15:24:34.414Z,6.28
2023-11-22T15:27:01.401Z,5.78
2023-11-22T15:29:28.388Z,4.10
2023-11-22T15:31:55.663Z,3.97
2023-11-22T15:34:22.971Z,5.45
2023-11-22T15:36:50.169Z,4.93
2023-11-22T15:39:19.023Z,3.75
2023-11-22T15:41:46.117Z,5.45
2023-11-22T15:44:14.302Z,6.15
2023-11-22T15:46:44.930Z,5.25
2023-11-22T15:49:11.963Z,4.07
2023-11-22T15:51:38.949Z,3.85
2023-11-22T15:54:07.370Z,3.83
2023-11-22T15:56:34.469Z,4.78
2023-11-22T15:59:01.931Z,12.55
2023-11-22T16:01:30.180Z,5.82
2023-11-22T16:03:57.581Z,4.97
2023-11-22T16:06:24.709Z,8.52
2023-11-22T16:08:51.784Z,8.52
2023-11-22T16:11:21.746Z,5.95
2023-11-22T16:13:49.295Z,6.28
2023-11-22T16:16:16.232Z,5.18
2023-11-22T16:18:43.209Z,6.68
2023-11-22T16:21:12.418Z,6.45
2023-11-22T16:23:39.552Z,6.22
2023-11-22T16:26:06.565Z,6.70
2023-11-22T16:28:34.781Z,7.70
2023-11-22T16:31:02.583Z,6.70
2023-11-22T16:33:29.671Z,4.75
2023-11-22T16:35:56.972Z,6.25
2023-11-22T16:38:24.823Z,9.63
2023-11-22T16:40:54.371Z,7.53
2023-11-22T16:43:22.309Z,5.13
2023-11-22T16:45:52.924Z,7.60
2023-11-22T16:48:20.295Z,9.77
2023-11-22T16:50:47.782Z,10.98
2023-11-22T16:53:17.560Z,9.13
2023-11-22T16:55:46.263Z,6.35
2023-11-22T16:58:13.228Z,6.85
2023-11-22T17:00:40.253Z,7.57
2023-11-22T17:03:07.585Z,5.00
2023-11-22T17:05:34.757Z,5.93
2023-11-22T17:08:02.147Z,8.82
2023-11-22T17:10:45.444Z,7.75
2023-11-22T17:13:15.232Z,6.82
2023-11-22T17:15:45.664Z,6.68
2023-11-22T17:18:14.697Z,4.53
2023-11-22T17:20:43.205Z,8.27
2023-11-22T17:23:11.224Z,5.97
2023-11-22T17:25:38.209Z,8.32
2023-11-22T17:28:05.259Z,6.28
2023-11-22T17:30:34.929Z,9.77
2023-11-22T17:33:02.452Z,6.40
2023-11-22T17:35:29.792Z,4.97
2023-11-22T17:37:59.255Z,7.93
2023-11-22T17:40:27.036Z,7.72
2023-11-22T17:42:54.415Z,8.20
2023-11-22T17:45:21.584Z,6.38
2023-11-22T17:47:49.044Z,6.85
2023-11-22T17:50:19.397Z,7.40
2023-11-22T17:52:47.875Z,6.57
2023-11-22T17:55:15.422Z,5.25
2023-11-22T17:57:43.450Z,6.90
2023-11-22T18:00:11.827Z,7.60
2023-11-22T18:02:41.817Z,7.32
2023-11-22T18:05:10.313Z,9.05
2023-11-22T18:07:38.960Z,6.85
2023-11-22T18:10:06.510Z,9.45
2023-11-22T18:12:33.759Z,6.55
2023-11-22T18:15:00.779Z,7.20
2023-11-22T18:17:27.954Z,8.48
2023-11-22T18:19:55.136Z,8.57
2023-11-22T18:22:22.083Z,7.93
2023-11-22T18:24:49.073Z,8.10
2023-11-22T18:27:16.168Z,7.40
2023-11-22T18:29:43.187Z,6.95
2023-11-22T18:32:11.442Z,8.70
2023-11-22T18:34:38.663Z,8.20
2023-11-22T18:37:06.823Z,7.18
2023-11-22T18:39:33.976Z,8.98
2023-11-22T18:42:01.333Z,8.45
2023-11-22T18:44:29.247Z,9.23
2023-11-22T18:46:56.947Z,4.78
2023-11-22T18:49:25.081Z,9.48
2023-11-22T18:51:53.245Z,7.53
2023-11-22T18:54:22.489Z,7.88
2023-11-22T18:56:50.193Z,7.80
2023-11-22T18:59:18.095Z,7.70
2023-11-22T19:01:48.300Z,5.80
2023-11-22T19:04:15.576Z,6.32
2023-11-22T19:06:43.039Z,8.23
2023-11-22T19:09:12.651Z,6.07
2023-11-22T19:11:40.473Z,10.70
2023-11-22T19:14:07.579Z,8.45
2023-11-22T19:16:34.945Z,9.02
2023-11-22T19:19:03.003Z,10.65
2023-11-22T19:21:31.501Z,7.85
2023-11-22T19:24:02.463Z,6.95
2023-11-22T19:26:31.952Z,10.88
2023-11-22T19:28:59.704Z,8.25
2023-11-22T19:31:27.806Z,8.05
2023-11-22T19:33:55.149Z,8.40
2023-11-22T19:36:30.488Z,9.45
2023-11-22T19:38:57.592Z,6.80
2023-11-22T19:41:28.699Z,7.97
2023-11-22T19:43:55.782Z,9.18
2023-11-22T19:46:22.801Z,7.00
2023-11-22T19:48:49.830Z,9.55
2023-11-22T19:51:16.877Z,10.15
2023-11-22T19:53:43.905Z,9.20
2023-11-22T19:56:11.217Z,11.77
2023-11-22T19:58:38.931Z,10.27
2023-11-22T20:01:07.230Z,8.90
2023-11-22T20:03:34.387Z,10.57
2023-11-22T20:06:01.638Z,14.05
2023-11-22T20:08:28.709Z,12.88
2023-11-22T20:10:55.740Z,11.20
2023-11-22T20:13:22.810Z,9.27
2023-11-22T20:15:51.796Z,8.23
2023-11-22T20:18:18.970Z,7.47
2023-11-22T20:20:46.012Z,8.80
2023-11-22T20:23:17.538Z,11.80
2023-11-22T20:25:45.425Z,11.52
2023-11-22T20:28:12.843Z,9.18
2023-11-22T20:30:39.932Z,11.25
2023-11-22T20:33:07.248Z,11.07
2023-11-22T20:35:34.358Z,8.50
2023-11-22T20:38:01.385Z,8.15
2023-11-22T20:40:28.326Z,9.93
2023-11-22T20:42:55.316Z,8.73
2023-11-22T20:45:22.400Z,7.22
2023-11-22T20:47:49.995Z,6.40
2023-11-22T20:50:17.114Z,10.82
2023-11-22T20:52:44.520Z,11.05
2023-11-22T20:55:11.616Z,9.07
2023-11-22T20:57:38.989Z,9.98
2023-11-22T21:00:13.453Z,12.43
2023-11-22T21:02:41.162Z,9.90
2023-11-22T21:05:08.964Z,13.25
2023-11-22T21:07:36.211Z,9.25
2023-11-22T21:10:03.435Z,9.65
2023-11-22T21:12:30.708Z,5.80
2023-11-22T21:14:57.845Z,7.53
2023-11-22T21:17:36.533Z,11.55
2023-11-22T21:20:11.107Z,6.82
2023-11-22T21:22:39.029Z,8.50
2023-11-22T21:25:09.749Z,7.45
2023-11-22T21:27:36.918Z,5.93
2023-11-22T21:30:06.190Z,10.80
2023-11-22T21:32:33.411Z,24.70
2023-11-22T21:35:00.679Z,14.00
2023-11-22T21:37:28.415Z,14.80
2023-11-22T21:39:56.460Z,13.82
2023-11-22T21:42:23.649Z,14.68
2023-11-22T21:44:50.588Z,11.50
2023-11-22T21:47:17.575Z,13.85
2023-11-22T21:49:44.571Z,9.90
2023-11-22T21:52:11.643Z,15.57
2023-11-22T21:54:38.628Z,11.52
2023-11-22T21:57:06.950Z,15.20
2023-11-22T21:59:35.436Z,9.40
2023-11-22T22:02:02.927Z,9.40
2023-11-22T22:04:30.097Z,9.38
2023-11-22T22:06:57.084Z,8.82
2023-11-22T22:09:24.219Z,7.18
2023-11-22T22:11:51.222Z,5.40
2023-11-22T22:14:18.233Z,9.13
2023-11-22T22:16:46.902Z,7.55
2023-11-22T22:19:14.812Z,6.85
2023-11-22T22:21:41.999Z,9.13
2023-11-22T22:24:10.370Z,8.20
2023-11-22T22:26:37.628Z,7.63
2023-11-22T22:29:05.387Z,7.93
2023-11-22T22:31:32.574Z,6.82
2023-11-22T22:33:59.547Z,9.70
2023-11-22T22:36:26.528Z,6.50
2023-11-22T22:38:53.581Z,8.77
2023-11-22T22:41:22.033Z,7.97
2023-11-22T22:43:49.002Z,6.97
2023-11-22T22:46:16.856Z,8.70
2023-11-22T22:48:44.454Z,7.88
2023-11-22T22:51:16.777Z,6.28
2023-11-22T22:53:44.666Z,7.20
2023-11-22T22:56:11.655Z,7.70
2023-11-22T22:58:38.889Z,7.07
2023-11-22T23:01:07.280Z,8.10
2023-11-22T23:03:36.568Z,7.63
2023-11-22T23:06:04.783Z,6.05
2023-11-22T23:08:33.180Z,7.05
2023-11-22T23:11:00.547Z,8.73
2023-11-22T23:13:27.900Z,6.15
2023-11-22T23:15:55.692Z,5.55
2023-11-22T23:18:25.070Z,6.18
2023-11-22T23:20:53.280Z,6.28
2023-11-22T23:23:20.422Z,3.97
2023-11-22T23:25:48.155Z,5.55
2023-11-22T23:28:16.252Z,7.10
2023-11-22T23:30:43.720Z,7.20
2023-11-22T23:33:10.793Z,5.82
2023-11-22T23:35:38.397Z,6.65
2023-11-22T23:38:07.698Z,6.85
2023-11-22T23:40:35.474Z,4.70
2023-11-22T23:43:05.324Z,4.70
2023-11-22T23:45:35.562Z,6.90
2023-11-22T23:48:04.179Z,6.32
2023-11-22T23:50:31.438Z,10.25
2023-11-22T23:52:58.365Z,7.05
2023-11-22T23:55:25.576Z,6.13
2023-11-22T23:57:52.585Z,4.55
